createdAt,value
2022-08-09T00:00:26.258Z,30.90
2022-08-09T00:02:56.988Z,30.80
2022-08-09T00:06:18.098Z,30.80
2022-08-09T00:08:32.123Z,30.80
2022-08-09T00:11:05.562Z,30.60
2022-08-09T00:13:38.392Z,30.50
2022-08-09T00:16:13.268Z,30.50
2022-08-09T00:18:44.968Z,30.50
2022-08-09T00:21:16.160Z,30.30
2022-08-09T00:23:58.022Z,30.20
2022-08-09T00:26:33.096Z,30.20
2022-08-09T00:29:12.142Z,30.00
2022-08-09T00:31:57.747Z,29.90
2022-08-09T00:34:32.677Z,29.90
2022-08-09T00:37:04.539Z,29.90
2022-08-09T00:40:13.837Z,29.80
2022-08-09T00:44:17.022Z,29.80
2022-08-09T00:45:17.168Z,29.80
2022-08-09T00:47:52.658Z,29.80
2022-08-09T00:50:26.646Z,29.80
2022-08-09T00:52:58.461Z,29.90
2022-08-09T00:56:03.326Z,29.90
2022-08-09T00:58:22.178Z,29.90
2022-08-09T01:00:59.002Z,29.70
2022-08-09T01:03:46.172Z,29.60
2022-08-09T01:06:25.511Z,29.70
2022-08-09T01:09:19.860Z,29.50
2022-08-09T01:12:04.116Z,29.40
2022-08-09T01:14:43.822Z,29.40
2022-08-09T01:17:24.947Z,29.30
2022-08-09T01:20:05.080Z,29.40
2022-08-09T01:23:22.064Z,29.60
2022-08-09T01:26:09.412Z,29.60
2022-08-09T01:28:46.720Z,29.70
2022-08-09T01:32:29.115Z,29.70
2022-08-09T01:34:15.653Z,29.80
2022-08-09T01:36:49.105Z,29.80
2022-08-09T01:39:23.262Z,29.70
2022-08-09T01:42:01.415Z,29.50
2022-08-09T01:44:37.658Z,29.40
2022-08-09T01:47:11.657Z,29.40
2022-08-09T01:49:50.834Z,29.40
2022-08-09T01:52:27.260Z,29.40
2022-08-09T01:55:03.928Z,29.40
2022-08-09T01:57:45.690Z,29.50
2022-08-09T02:00:34.459Z,29.40
2022-08-09T02:03:07.946Z,29.40
2022-08-09T02:06:03.825Z,29.30
2022-08-09T02:08:59.061Z,29.30
2022-08-09T02:11:42.467Z,29.20
2022-08-09T02:14:26.248Z,28.90
2022-08-09T02:17:15.337Z,28.90
2022-08-09T02:19:51.699Z,28.80
2022-08-09T02:22:34.873Z,28.60
2022-08-09T02:25:15.098Z,28.50
2022-08-09T02:28:00.267Z,28.40
2022-08-09T02:30:41.366Z,28.40
2022-08-09T02:33:17.136Z,28.40
2022-08-09T02:36:02.710Z,28.40
2022-08-09T02:38:38.381Z,28.30
2022-08-09T02:41:13.751Z,28.20
2022-08-09T02:43:55.098Z,28.10
2022-08-09T02:46:29.411Z,28.00
2022-08-09T02:49:06.175Z,27.80
2022-08-09T02:51:40.494Z,27.70
2022-08-09T02:54:15.352Z,27.50
2022-08-09T02:56:51.080Z,27.30
2022-08-09T02:59:36.389Z,27.20
2022-08-09T03:02:16.912Z,26.90
2022-08-09T03:04:50.852Z,26.70
2022-08-09T03:07:23.263Z,26.50
2022-08-09T03:09:56.750Z,26.30
2022-08-09T03:12:33.218Z,26.20
2022-08-09T03:15:07.621Z,26.10
2022-08-09T03:17:40.940Z,25.90
2022-08-09T03:20:14.094Z,25.70
2022-08-09T03:22:56.891Z,25.70
2022-08-09T03:25:57.826Z,25.60
2022-08-09T03:28:22.481Z,25.50
2022-08-09T03:30:53.686Z,25.40
2022-08-09T03:33:25.328Z,25.30
2022-08-09T03:36:13.314Z,25.10
2022-08-09T03:38:48.185Z,24.90
2022-08-09T03:41:21.060Z,24.70
2022-08-09T03:44:08.259Z,24.50
2022-08-09T03:46:39.875Z,24.50
2022-08-09T03:49:11.341Z,24.40
2022-08-09T03:51:58.794Z,24.20
2022-08-09T03:54:34.788Z,24.10
2022-08-09T03:57:17.867Z,24.00
2022-08-09T03:59:55.314Z,23.90
2022-08-09T04:02:28.822Z,23.90
2022-08-09T04:05:06.283Z,23.90
2022-08-09T04:07:53.420Z,23.90
2022-08-09T04:10:30.205Z,23.80
2022-08-09T04:13:11.499Z,23.60
2022-08-09T04:16:19.985Z,23.50
2022-08-09T04:18:36.728Z,23.40
2022-08-09T04:21:07.679Z,23.30
2022-08-09T04:23:41.438Z,23.10
2022-08-09T04:26:24.814Z,23.10
2022-08-09T04:29:10.825Z,23.00
2022-08-09T04:31:47.412Z,22.90
2022-08-09T04:34:30.713Z,22.90
2022-08-09T04:37:02.895Z,22.90
2022-08-09T04:39:40.843Z,22.70
2022-08-09T04:42:11.776Z,22.70
2022-08-09T04:44:49.190Z,22.60
2022-08-09T04:47:20.211Z,22.60
2022-08-09T04:49:54.473Z,22.50
2022-08-09T04:52:27.843Z,22.40
2022-08-09T04:55:01.815Z,22.30
2022-08-09T04:57:58.313Z,22.20
2022-08-09T05:00:24.802Z,22.20
2022-08-09T05:03:12.618Z,22.10
2022-08-09T05:05:51.978Z,22.00
2022-08-09T05:08:34.423Z,22.00
2022-08-09T05:11:07.846Z,22.00
2022-08-09T05:13:39.161Z,21.90
2022-08-09T05:16:11.062Z,21.80
2022-08-09T05:18:57.529Z,21.80
2022-08-09T05:21:36.379Z,21.80
2022-08-09T05:24:17.191Z,21.70
2022-08-09T05:26:49.539Z,21.60
2022-08-09T05:29:24.003Z,21.60
2022-08-09T05:32:00.858Z,21.60
2022-08-09T05:34:32.778Z,21.50
2022-08-09T05:37:06.632Z,21.50
2022-08-09T05:39:43.460Z,21.40
2022-08-09T05:42:21.384Z,21.40
2022-08-09T05:44:53.653Z,21.30
2022-08-09T05:47:27.314Z,21.20
2022-08-09T05:50:35.156Z,21.20
2022-08-09T05:52:54.031Z,21.20
2022-08-09T05:55:25.858Z,21.10
2022-08-09T05:57:58.643Z,21.10
2022-08-09T06:00:30.767Z,21.00
2022-08-09T06:03:10.692Z,20.90
2022-08-09T06:05:56.990Z,20.90
2022-08-09T06:08:32.613Z,20.80
2022-08-09T06:11:17.456Z,20.70
2022-08-09T06:13:50.261Z,20.70
2022-08-09T06:16:21.035Z,20.70
2022-08-09T06:18:52.872Z,20.60
2022-08-09T06:21:24.513Z,20.50
2022-08-09T06:24:01.606Z,20.50
2022-08-09T06:26:35.127Z,20.60
2022-08-09T06:29:09.105Z,20.50
2022-08-09T06:32:17.294Z,20.40
2022-08-09T06:34:37.630Z,20.40
2022-08-09T06:37:10.156Z,20.30
2022-08-09T06:39:57.965Z,20.20
2022-08-09T06:42:33.680Z,20.10
2022-08-09T06:46:04.850Z,20.20
2022-08-09T06:48:07.879Z,20.20
2022-08-09T06:50:40.144Z,20.20
2022-08-09T06:53:12.049Z,20.10
2022-08-09T06:55:43.155Z,19.90
2022-08-09T07:00:47.466Z,19.90
2022-08-09T07:01:11.557Z,19.90
2022-08-09T07:03:52.526Z,19.90
2022-08-09T07:06:25.495Z,19.90
2022-08-09T07:08:58.676Z,19.80
2022-08-09T07:11:34.223Z,19.80
2022-08-09T07:14:26.413Z,19.80
2022-08-09T07:16:59.256Z,19.70
2022-08-09T07:19:29.988Z,19.60
2022-08-09T07:22:00.729Z,19.60
2022-08-09T07:24:39.801Z,19.50
2022-08-09T07:27:27.251Z,19.40
2022-08-09T07:30:04.385Z,19.40
2022-08-09T07:32:38.168Z,19.30
2022-08-09T07:35:13.273Z,19.30
2022-08-09T07:37:48.102Z,19.40
2022-08-09T07:40:27.110Z,19.40
2022-08-09T07:43:14.819Z,19.30
2022-08-09T07:45:47.862Z,19.30
2022-08-09T07:48:28.563Z,19.10
2022-08-09T07:51:09.329Z,19.10
2022-08-09T07:54:04.936Z,19.10
2022-08-09T07:56:49.188Z,19.20
2022-08-09T07:59:33.798Z,19.10
2022-08-09T08:02:19.389Z,19.00
2022-08-09T08:04:53.782Z,19.00
2022-08-09T08:08:42.722Z,18.90
2022-08-09T08:10:15.733Z,18.80
2022-08-09T08:12:49.317Z,18.80
2022-08-09T08:15:23.149Z,18.80
2022-08-09T08:17:58.358Z,18.80
2022-08-09T08:20:33.376Z,18.70
2022-08-09T08:23:17.420Z,18.70
2022-08-09T08:26:06.630Z,18.70
2022-08-09T08:28:40.060Z,18.70
2022-08-09T08:31:14.812Z,18.70
2022-08-09T08:33:52.143Z,18.70
2022-08-09T08:36:30.450Z,18.70
2022-08-09T08:39:01.802Z,18.80
2022-08-09T08:41:42.124Z,18.80
2022-08-09T08:44:28.920Z,18.70
2022-08-09T08:47:05.123Z,18.70
2022-08-09T08:49:47.859Z,18.70
2022-08-09T08:55:19.064Z,18.60
2022-08-09T08:57:57.521Z,18.50
2022-08-09T09:00:34.358Z,18.50
2022-08-09T09:03:12.305Z,18.40
2022-08-09T09:06:00.615Z,18.40
2022-08-09T09:08:42.509Z,18.30
2022-08-09T09:11:19.706Z,18.30
2022-08-09T09:13:56.576Z,18.30
2022-08-09T09:16:35.046Z,18.30
2022-08-09T09:19:22.642Z,18.40
2022-08-09T09:22:11.424Z,18.40
2022-08-09T09:24:46.859Z,18.30
2022-08-09T09:28:03.826Z,18.30
2022-08-09T09:30:38.616Z,18.30
2022-08-09T09:33:15.757Z,18.40
2022-08-09T09:36:01.744Z,18.30
2022-08-09T09:38:45.985Z,18.30
2022-08-09T09:41:33.292Z,18.30
2022-08-09T09:44:31.733Z,18.30
2022-08-09T09:47:09.719Z,18.40
2022-08-09T09:50:07.313Z,18.40
2022-08-09T09:52:37.384Z,18.40
2022-08-09T09:55:28.532Z,18.30
2022-08-09T09:58:19.037Z,18.30
2022-08-09T10:00:55.330Z,18.30
2022-08-09T10:03:56.942Z,18.40
2022-08-09T10:06:32.414Z,18.30
2022-08-09T10:09:11.839Z,18.30
2022-08-09T10:12:14.585Z,18.30
2022-08-09T10:14:53.869Z,18.20
2022-08-09T10:17:51.467Z,18.20
2022-08-09T10:20:33.039Z,18.10
2022-08-09T10:23:20.359Z,18.10
2022-08-09T10:26:06.728Z,18.10
2022-08-09T10:28:41.207Z,18.10
2022-08-09T10:34:10.102Z,18.10
2022-08-09T10:36:50.924Z,18.00
2022-08-09T10:39:21.963Z,18.00
2022-08-09T10:41:57.755Z,18.10
2022-08-09T10:44:31.894Z,18.10
2022-08-09T10:48:16.674Z,18.10
2022-08-09T10:50:31.121Z,18.10
2022-08-09T10:53:23.172Z,18.20
2022-08-09T10:56:14.224Z,18.10
2022-08-09T10:58:54.291Z,18.10
2022-08-09T11:03:13.481Z,18.20
2022-08-09T11:04:35.352Z,18.20
2022-08-09T11:07:57.337Z,18.10
2022-08-09T11:11:00.816Z,18.10
2022-08-09T11:13:49.891Z,18.10
2022-08-09T11:16:41.075Z,18.00
2022-08-09T11:19:12.621Z,18.10
2022-08-09T11:22:16.675Z,18.10
2022-08-09T11:25:13.102Z,18.10
2022-08-09T11:28:05.590Z,18.00
2022-08-09T11:30:39.128Z,18.00
2022-08-09T11:33:35.122Z,18.00
2022-08-09T11:36:07.053Z,18.10
2022-08-09T11:38:41.539Z,18.10
2022-08-09T11:41:38.475Z,18.10
2022-08-09T11:44:11.576Z,18.10
2022-08-09T11:46:58.349Z,18.00
2022-08-09T11:50:53.922Z,18.10
2022-08-09T11:53:55.269Z,18.10
2022-08-09T11:56:41.928Z,18.10
2022-08-09T11:59:30.594Z,18.20
2022-08-09T12:02:17.367Z,18.30
2022-08-09T12:04:59.205Z,18.30
2022-08-09T12:07:41.256Z,18.30
2022-08-09T12:10:38.143Z,18.20
2022-08-09T12:14:09.317Z,18.20
2022-08-09T12:16:03.950Z,18.20
2022-08-09T12:18:35.962Z,18.20
2022-08-09T12:21:28.429Z,18.20
2022-08-09T12:24:08.869Z,18.20
2022-08-09T12:28:58.678Z,18.20
2022-08-09T12:29:51.459Z,18.10
2022-08-09T12:32:29.103Z,18.20
2022-08-09T12:35:04.759Z,18.30
2022-08-09T12:37:49.725Z,18.30
2022-08-09T12:40:24.843Z,18.30
2022-08-09T12:42:56.276Z,18.20
2022-08-09T12:45:33.514Z,18.20
2022-08-09T12:48:20.473Z,18.40
2022-08-09T12:50:59.903Z,18.30
2022-08-09T12:53:38.685Z,18.20
2022-08-09T12:56:39.851Z,18.20
2022-08-09T12:59:14.096Z,18.30
2022-08-09T13:01:50.008Z,18.30
2022-08-09T13:04:36.360Z,18.30
2022-08-09T13:07:19.844Z,18.30
2022-08-09T13:10:05.796Z,18.30
2022-08-09T13:12:40.063Z,18.30
2022-08-09T13:15:27.674Z,18.20
2022-08-09T13:18:09.538Z,18.20
2022-08-09T13:21:04.094Z,18.20
2022-08-09T13:24:17.304Z,18.20
2022-08-09T13:26:39.380Z,18.20
2022-08-09T13:29:13.278Z,18.20
2022-08-09T13:32:15.194Z,18.30
2022-08-09T13:34:52.481Z,18.30
2022-08-09T13:37:51.061Z,18.20
2022-08-09T13:41:54.162Z,18.30
2022-08-09T13:43:09.981Z,18.40
2022-08-09T13:46:42.246Z,18.40
2022-08-09T13:48:32.112Z,18.50
2022-08-09T13:51:04.521Z,18.50
2022-08-09T13:53:43.565Z,18.50
2022-08-09T13:56:15.646Z,18.60
2022-08-09T13:58:49.091Z,18.60
2022-08-09T14:01:56.081Z,18.60
2022-08-09T14:04:11.865Z,18.70
2022-08-09T14:06:46.708Z,18.70
2022-08-09T14:09:18.389Z,18.80
2022-08-09T14:11:49.312Z,18.80
2022-08-09T14:14:25.792Z,18.70
2022-08-09T14:16:58.652Z,18.90
2022-08-09T14:19:33.580Z,19.10
2022-08-09T14:22:06.734Z,19.20
2022-08-09T14:24:53.307Z,19.30
2022-08-09T14:27:24.905Z,19.30
2022-08-09T14:30:34.725Z,19.50
2022-08-09T14:32:48.442Z,19.60
2022-08-09T14:35:20.423Z,19.70
2022-08-09T14:38:02.650Z,19.90
2022-08-09T14:41:00.731Z,20.10
2022-08-09T14:43:25.873Z,20.50
2022-08-09T14:47:00.748Z,20.60
2022-08-09T14:49:10.564Z,20.70
2022-08-09T14:51:42.277Z,20.70
2022-08-09T14:54:16.420Z,20.90
2022-08-09T14:56:57.261Z,21.50
2022-08-09T14:59:29.343Z,22.80
2022-08-09T15:02:01.408Z,24.30
2022-08-09T15:04:33.378Z,25.30
2022-08-09T15:07:04.155Z,25.40
2022-08-09T15:10:07.194Z,24.90
2022-08-09T15:12:27.629Z,24.40
2022-08-09T15:14:58.499Z,25.10
2022-08-09T15:17:29.328Z,24.70
2022-08-09T15:20:02.728Z,24.00
2022-08-09T15:22:34.456Z,23.50
2022-08-09T15:25:39.063Z,23.40
2022-08-09T15:28:27.275Z,22.70
2022-08-09T15:31:13.174Z,22.30
2022-08-09T15:34:17.685Z,22.20
2022-08-09T15:36:40.575Z,21.90
2022-08-09T15:39:21.415Z,22.00
2022-08-09T15:41:54.622Z,22.00
2022-08-09T15:44:25.431Z,21.70
2022-08-09T15:46:56.137Z,21.50
2022-08-09T15:49:27.286Z,21.70
2022-08-09T15:52:05.127Z,21.70
2022-08-09T15:54:49.517Z,21.70
2022-08-09T15:57:34.250Z,21.60
2022-08-09T16:00:13.912Z,21.90
2022-08-09T16:02:53.414Z,21.90
2022-08-09T16:05:27.267Z,22.00
2022-08-09T16:08:31.018Z,22.60
2022-08-09T16:11:03.097Z,22.90
2022-08-09T16:14:04.192Z,22.70
2022-08-09T16:16:28.480Z,22.30
2022-08-09T16:18:59.300Z,22.20
2022-08-09T16:21:34.011Z,22.80
2022-08-09T16:24:05.568Z,23.50
2022-08-09T16:26:43.887Z,23.80
2022-08-09T16:29:21.376Z,23.10
2022-08-09T16:32:18.710Z,22.90
2022-08-09T16:35:00.338Z,23.20
2022-08-09T16:37:53.107Z,23.20
2022-08-09T16:40:40.053Z,23.40
2022-08-09T16:43:12.238Z,23.50
2022-08-09T16:45:46.882Z,23.30
2022-08-09T16:48:40.999Z,23.20
2022-08-09T16:51:13.656Z,23.20
2022-08-09T16:54:22.489Z,23.20
2022-08-09T16:56:37.477Z,23.10
2022-08-09T16:59:19.889Z,23.10
2022-08-09T17:01:53.301Z,23.10
2022-08-09T17:04:25.576Z,23.30
2022-08-09T17:07:10.088Z,23.60
2022-08-09T17:09:47.852Z,23.80
2022-08-09T17:12:20.319Z,24.60
2022-08-09T17:14:57.664Z,25.60
2022-08-09T17:17:30.909Z,27.40
2022-08-09T17:20:32.593Z,29.10
2022-08-09T17:23:10.486Z,30.40
2022-08-09T17:25:52.991Z,31.00
2022-08-09T17:28:24.120Z,31.50
2022-08-09T17:30:57.797Z,31.30
2022-08-09T17:33:32.259Z,29.70
2022-08-09T17:36:09.204Z,29.20
2022-08-09T17:38:57.482Z,29.10
2022-08-09T17:41:38.888Z,29.00
2022-08-09T17:44:39.259Z,29.80
2022-08-09T17:47:00.806Z,30.00
2022-08-09T17:49:50.656Z,29.00
2022-08-09T17:52:27.565Z,28.40
2022-08-09T17:54:58.569Z,27.50
2022-08-09T17:58:03.625Z,26.80
2022-08-09T18:00:21.170Z,25.90
2022-08-09T18:03:11.920Z,25.60
2022-08-09T18:05:44.755Z,25.30
2022-08-09T18:08:16.145Z,24.70
2022-08-09T18:11:02.118Z,24.50
2022-08-09T18:13:43.458Z,24.60
2022-08-09T18:16:29.060Z,24.40
2022-08-09T18:19:04.111Z,24.30
2022-08-09T18:21:54.439Z,24.10
2022-08-09T18:24:27.431Z,23.50
2022-08-09T18:27:01.307Z,23.50
2022-08-09T18:30:40.712Z,23.20
2022-08-09T18:32:23.287Z,23.00
2022-08-09T18:34:57.505Z,23.10
2022-08-09T18:37:49.089Z,22.90
2022-08-09T18:40:20.591Z,22.80
2022-08-09T18:42:57.816Z,22.60
2022-08-09T18:46:49.541Z,22.50
2022-08-09T18:48:21.629Z,22.60
2022-08-09T18:50:57.877Z,22.50
2022-08-09T18:53:36.799Z,22.30
2022-08-09T18:56:27.773Z,22.30
2022-08-09T18:58:58.750Z,22.10
2022-08-09T19:01:46.127Z,22.20
2022-08-09T19:04:17.180Z,22.20
2022-08-09T19:07:05.338Z,22.20
2022-08-09T19:10:14.097Z,22.40
2022-08-09T19:12:29.524Z,22.50
2022-08-09T19:15:00.564Z,22.60
2022-08-09T19:17:54.646Z,22.60
2022-08-09T19:20:24.445Z,23.30
2022-08-09T19:22:55.256Z,24.70
2022-08-09T19:25:27.788Z,25.80
2022-08-09T19:28:14.013Z,26.60
2022-08-09T19:30:46.427Z,27.00
2022-08-09T19:33:21.548Z,27.00
2022-08-09T19:35:57.323Z,27.70
2022-08-09T19:38:29.831Z,27.40
2022-08-09T19:41:02.561Z,27.00
2022-08-09T19:43:58.047Z,27.10
2022-08-09T19:46:34.195Z,27.60
2022-08-09T19:50:08.235Z,28.50
2022-08-09T19:51:57.712Z,28.80
2022-08-09T19:54:29.008Z,29.00
2022-08-09T19:57:01.664Z,28.80
2022-08-09T19:59:57.486Z,28.80
2022-08-09T20:04:07.357Z,28.60
2022-08-09T20:05:19.190Z,28.30
2022-08-09T20:07:59.599Z,27.80
2022-08-09T20:10:34.580Z,28.10
2022-08-09T20:13:11.208Z,27.80
2022-08-09T20:16:34.844Z,27.80
2022-08-09T20:18:33.015Z,28.10
2022-08-09T20:21:04.211Z,28.20
2022-08-09T20:23:40.027Z,28.40
2022-08-09T20:26:13.262Z,28.30
2022-08-09T20:28:49.741Z,28.30
2022-08-09T20:31:22.417Z,28.10
2022-08-09T20:33:58.513Z,28.00
2022-08-09T20:36:33.028Z,28.20
2022-08-09T20:39:29.009Z,28.30
2022-08-09T20:41:56.259Z,28.20
2022-08-09T20:44:32.191Z,28.50
2022-08-09T20:47:07.141Z,28.30
2022-08-09T20:49:57.870Z,28.10
2022-08-09T20:52:29.285Z,28.20
2022-08-09T20:55:00.037Z,28.10
2022-08-09T20:57:33.859Z,28.20
2022-08-09T21:00:31.185Z,28.50
2022-08-09T21:03:03.143Z,28.70
2022-08-09T21:05:50.799Z,28.90
2022-08-09T21:08:36.418Z,29.10
2022-08-09T21:14:00.349Z,29.10
2022-08-09T21:16:33.209Z,29.20
2022-08-09T21:20:18.516Z,29.20
2022-08-09T21:21:57.337Z,29.20
2022-08-09T21:24:33.628Z,29.20
2022-08-09T21:27:50.472Z,29.20
2022-08-09T21:29:55.373Z,29.20
2022-08-09T21:32:33.429Z,29.50
2022-08-09T21:35:06.262Z,29.50
2022-08-09T21:37:40.475Z,29.50
2022-08-09T21:40:30.791Z,29.50
2022-08-09T21:43:06.157Z,29.40
2022-08-09T21:45:39.149Z,29.30
2022-08-09T21:48:12.211Z,29.20
2022-08-09T21:50:49.685Z,29.40
2022-08-09T21:53:40.183Z,29.50
2022-08-09T21:56:28.329Z,29.60
2022-08-09T21:59:02.536Z,29.30
2022-08-09T22:01:58.710Z,29.30
2022-08-09T22:04:37.515Z,29.20
2022-08-09T22:07:35.236Z,28.90
2022-08-09T22:10:08.900Z,28.80
2022-08-09T22:12:40.457Z,28.50
2022-08-09T22:15:23.236Z,28.50
2022-08-09T22:18:04.171Z,28.50
2022-08-09T22:20:40.830Z,28.60
2022-08-09T22:23:13.384Z,28.30
2022-08-09T22:26:08.074Z,27.90
2022-08-09T22:28:35.595Z,28.20
2022-08-09T22:31:15.405Z,28.60
2022-08-09T22:33:55.217Z,28.80
2022-08-09T22:36:28.186Z,29.00
2022-08-09T22:39:08.289Z,29.10
2022-08-09T22:41:39.011Z,28.90
2022-08-09T22:44:13.352Z,29.00
2022-08-09T22:48:13.805Z,29.00
2022-08-09T22:49:36.737Z,29.00
2022-08-09T22:52:12.865Z,29.10
2022-08-09T22:54:46.775Z,29.20
2022-08-09T22:57:17.888Z,29.20
2022-08-09T22:59:56.229Z,29.10
2022-08-09T23:02:29.321Z,29.20
2022-08-09T23:05:00.106Z,29.10
2022-08-09T23:08:22.826Z,29.20
2022-08-09T23:10:43.678Z,29.30
2022-08-09T23:13:14.722Z,29.00
2022-08-09T23:16:02.796Z,28.70
2022-08-09T23:18:34.530Z,28.90
2022-08-09T23:21:06.316Z,29.00
2022-08-09T23:23:39.309Z,28.90
2022-08-09T23:26:11.108Z,29.00
2022-08-09T23:28:41.808Z,29.30
2022-08-09T23:31:12.539Z,29.40
2022-08-09T23:33:43.280Z,29.40
2022-08-09T23:36:14.202Z,29.30
2022-08-09T23:38:49.198Z,29.20
2022-08-09T23:41:28.331Z,29.10
2022-08-09T23:44:01.158Z,29.20
2022-08-09T23:46:32.623Z,29.30
2022-08-09T23:49:03.783Z,29.30
2022-08-09T23:51:34.553Z,29.50
2022-08-09T23:54:07.253Z,29.70
2022-08-09T23:56:52.480Z,29.80
2022-08-09T23:59:47.124Z,30.00
